sensor_id;sensor_type;location;lat;lon;timestamp;P1;durP1;ratioP1;P2;durP2;ratioP2
48847;SDS011;36611;51.638;5.784;2022-08-02T00:00:07;3.78;;;2.20;;
48847;SDS011;36611;51.638;5.784;2022-08-02T00:02:35;4.05;;;2.30;;
48847;SDS011;36611;51.638;5.784;2022-08-02T00:05:03;4.22;;;2.30;;
48847;SDS011;36611;51.638;5.784;2022-08-02T00:07:31;4.03;;;2.45;;
48847;SDS011;36611;51.638;5.784;2022-08-02T00:10:03;7.47;;;2.40;;
48847;SDS011;36611;51.638;5.784;2022-08-02T00:12:31;5.25;;;2.63;;
48847;SDS011;36611;51.638;5.784;2022-08-02T00:15:00;6.18;;;4.22;;
48847;SDS011;36611;51.638;5.784;2022-08-02T00:17:27;9.38;;;5.82;;
48847;SDS011;36611;51.638;5.784;2022-08-02T00:19:53;7.55;;;4.00;;
48847;SDS011;36611;51.638;5.784;2022-08-02T00:22:20;4.50;;;3.05;;
48847;SDS011;36611;51.638;5.784;2022-08-02T00:24:48;5.05;;;2.40;;
48847;SDS011;36611;51.638;5.784;2022-08-02T00:27:14;3.17;;;2.30;;
48847;SDS011;36611;51.638;5.784;2022-08-02T00:29:41;3.92;;;2.17;;
48847;SDS011;36611;51.638;5.784;2022-08-02T00:32:20;3.63;;;2.10;;
48847;SDS011;36611;51.638;5.784;2022-08-02T00:34:51;4.07;;;1.95;;
48847;SDS011;36611;51.638;5.784;2022-08-02T00:37:18;3.97;;;2.20;;
48847;SDS011;36611;51.638;5.784;2022-08-02T00:39:45;7.55;;;2.08;;
48847;SDS011;36611;51.638;5.784;2022-08-02T00:42:14;3.25;;;1.85;;
48847;SDS011;36611;51.638;5.784;2022-08-02T00:44:45;3.17;;;1.85;;
48847;SDS011;36611;51.638;5.784;2022-08-02T00:47:12;4.68;;;1.95;;
48847;SDS011;36611;51.638;5.784;2022-08-02T00:49:45;2.97;;;2.00;;
48847;SDS011;36611;51.638;5.784;2022-08-02T00:52:12;2.03;;;1.83;;
48847;SDS011;36611;51.638;5.784;2022-08-02T00:54:40;2.45;;;1.80;;
48847;SDS011;36611;51.638;5.784;2022-08-02T00:57:07;2.97;;;1.80;;
48847;SDS011;36611;51.638;5.784;2022-08-02T00:59:33;2.75;;;2.10;;
48847;SDS011;36611;51.638;5.784;2022-08-02T01:02:00;3.55;;;2.40;;
48847;SDS011;36611;51.638;5.784;2022-08-02T01:04:29;2.90;;;1.83;;
48847;SDS011;36611;51.638;5.784;2022-08-02T01:07:01;3.25;;;1.98;;
48847;SDS011;36611;51.638;5.784;2022-08-02T01:09:38;5.90;;;2.25;;
48847;SDS011;36611;51.638;5.784;2022-08-02T01:12:05;2.88;;;1.77;;
48847;SDS011;36611;51.638;5.784;2022-08-02T01:14:32;3.03;;;1.92;;
48847;SDS011;36611;51.638;5.784;2022-08-02T01:17:05;3.20;;;2.00;;
48847;SDS011;36611;51.638;5.784;2022-08-02T01:19:54;6.22;;;2.00;;
48847;SDS011;36611;51.638;5.784;2022-08-02T01:25:32;3.15;;;2.22;;
48847;SDS011;36611;51.638;5.784;2022-08-02T01:30:46;4.05;;;2.20;;
48847;SDS011;36611;51.638;5.784;2022-08-02T01:33:21;4.25;;;2.35;;
48847;SDS011;36611;51.638;5.784;2022-08-02T01:35:51;3.85;;;2.35;;
48847;SDS011;36611;51.638;5.784;2022-08-02T01:38:41;7.25;;;3.10;;
48847;SDS011;36611;51.638;5.784;2022-08-02T01:41:14;6.85;;;3.28;;
48847;SDS011;36611;51.638;5.784;2022-08-02T01:43:48;2.65;;;2.30;;
48847;SDS011;36611;51.638;5.784;2022-08-02T01:46:18;3.65;;;2.15;;
48847;SDS011;36611;51.638;5.784;2022-08-02T01:48:46;4.18;;;2.40;;
48847;SDS011;36611;51.638;5.784;2022-08-02T01:51:15;4.70;;;2.35;;
48847;SDS011;36611;51.638;5.784;2022-08-02T01:53:45;4.63;;;2.65;;
48847;SDS011;36611;51.638;5.784;2022-08-02T01:56:15;4.70;;;2.67;;
48847;SDS011;36611;51.638;5.784;2022-08-02T01:58:44;6.10;;;2.55;;
48847;SDS011;36611;51.638;5.784;2022-08-02T02:01:12;6.47;;;2.40;;
48847;SDS011;36611;51.638;5.784;2022-08-02T02:03:44;3.47;;;2.85;;
48847;SDS011;36611;51.638;5.784;2022-08-02T02:06:13;4.85;;;3.22;;
48847;SDS011;36611;51.638;5.784;2022-08-02T02:08:41;6.43;;;2.80;;
48847;SDS011;36611;51.638;5.784;2022-08-02T02:11:09;5.45;;;2.67;;
48847;SDS011;36611;51.638;5.784;2022-08-02T02:14:00;7.10;;;2.63;;
48847;SDS011;36611;51.638;5.784;2022-08-02T02:16:28;4.00;;;2.65;;
48847;SDS011;36611;51.638;5.784;2022-08-02T02:18:58;5.20;;;2.85;;
48847;SDS011;36611;51.638;5.784;2022-08-02T02:21:28;3.67;;;2.42;;
48847;SDS011;36611;51.638;5.784;2022-08-02T02:24:01;5.60;;;3.05;;
48847;SDS011;36611;51.638;5.784;2022-08-02T02:26:28;4.47;;;2.40;;
48847;SDS011;36611;51.638;5.784;2022-08-02T02:28:58;4.25;;;2.53;;
48847;SDS011;36611;51.638;5.784;2022-08-02T02:31:28;5.13;;;2.50;;
48847;SDS011;36611;51.638;5.784;2022-08-02T02:36:55;8.48;;;2.78;;
48847;SDS011;36611;51.638;5.784;2022-08-02T02:39:26;5.95;;;3.05;;
48847;SDS011;36611;51.638;5.784;2022-08-02T02:41:55;3.75;;;2.67;;
48847;SDS011;36611;51.638;5.784;2022-08-02T02:44:23;6.43;;;2.80;;
48847;SDS011;36611;51.638;5.784;2022-08-02T02:46:52;3.55;;;2.63;;
48847;SDS011;36611;51.638;5.784;2022-08-02T02:49:20;4.55;;;2.80;;
48847;SDS011;36611;51.638;5.784;2022-08-02T02:51:48;4.75;;;2.70;;
48847;SDS011;36611;51.638;5.784;2022-08-02T02:54:17;4.70;;;2.67;;
48847;SDS011;36611;51.638;5.784;2022-08-02T02:57:00;6.15;;;3.08;;
48847;SDS011;36611;51.638;5.784;2022-08-02T02:59:27;4.85;;;2.58;;
48847;SDS011;36611;51.638;5.784;2022-08-02T03:01:54;5.68;;;2.80;;
48847;SDS011;36611;51.638;5.784;2022-08-02T03:04:26;5.20;;;2.90;;
48847;SDS011;36611;51.638;5.784;2022-08-02T03:07:13;3.67;;;2.55;;
48847;SDS011;36611;51.638;5.784;2022-08-02T03:09:41;4.88;;;2.58;;
48847;SDS011;36611;51.638;5.784;2022-08-02T03:12:08;8.20;;;2.90;;
48847;SDS011;36611;51.638;5.784;2022-08-02T03:17:36;4.40;;;2.88;;
48847;SDS011;36611;51.638;5.784;2022-08-02T03:20:09;4.60;;;3.00;;
48847;SDS011;36611;51.638;5.784;2022-08-02T03:22:40;6.43;;;3.25;;
48847;SDS011;36611;51.638;5.784;2022-08-02T03:25:08;5.75;;;3.53;;
48847;SDS011;36611;51.638;5.784;2022-08-02T03:27:36;7.32;;;3.10;;
48847;SDS011;36611;51.638;5.784;2022-08-02T03:30:04;7.28;;;3.03;;
48847;SDS011;36611;51.638;5.784;2022-08-02T03:32:33;6.30;;;3.30;;
48847;SDS011;36611;51.638;5.784;2022-08-02T03:35:05;7.07;;;3.10;;
48847;SDS011;36611;51.638;5.784;2022-08-02T03:37:35;7.05;;;3.35;;
48847;SDS011;36611;51.638;5.784;2022-08-02T03:40:04;4.15;;;3.00;;
48847;SDS011;36611;51.638;5.784;2022-08-02T03:42:33;4.78;;;3.25;;
48847;SDS011;36611;51.638;5.784;2022-08-02T03:45:02;4.53;;;2.85;;
48847;SDS011;36611;51.638;5.784;2022-08-02T03:47:34;4.15;;;3.45;;
48847;SDS011;36611;51.638;5.784;2022-08-02T03:50:03;6.05;;;3.10;;
48847;SDS011;36611;51.638;5.784;2022-08-02T03:52:30;4.22;;;2.83;;
48847;SDS011;36611;51.638;5.784;2022-08-02T03:54:58;5.85;;;3.28;;
48847;SDS011;36611;51.638;5.784;2022-08-02T03:57:25;4.93;;;3.20;;
48847;SDS011;36611;51.638;5.784;2022-08-02T03:59:52;4.18;;;3.20;;
48847;SDS011;36611;51.638;5.784;2022-08-02T04:02:19;5.25;;;3.60;;
48847;SDS011;36611;51.638;5.784;2022-08-02T04:04:46;4.47;;;3.35;;
48847;SDS011;36611;51.638;5.784;2022-08-02T04:07:13;5.55;;;3.47;;
48847;SDS011;36611;51.638;5.784;2022-08-02T04:10:00;7.10;;;3.40;;
48847;SDS011;36611;51.638;5.784;2022-08-02T04:12:26;7.93;;;4.03;;
48847;SDS011;36611;51.638;5.784;2022-08-02T04:14:53;5.63;;;3.35;;
48847;SDS011;36611;51.638;5.784;2022-08-02T04:17:20;5.47;;;3.47;;
48847;SDS011;36611;51.638;5.784;2022-08-02T04:19:49;5.35;;;3.33;;
48847;SDS011;36611;51.638;5.784;2022-08-02T04:22:30;4.20;;;3.33;;
48847;SDS011;36611;51.638;5.784;2022-08-02T04:25:06;7.50;;;3.28;;
48847;SDS011;36611;51.638;5.784;2022-08-02T04:27:42;5.65;;;3.22;;
48847;SDS011;36611;51.638;5.784;2022-08-02T04:30:30;4.90;;;3.28;;
48847;SDS011;36611;51.638;5.784;2022-08-02T04:32:59;7.75;;;3.90;;
48847;SDS011;36611;51.638;5.784;2022-08-02T04:35:26;3.85;;;2.95;;
48847;SDS011;36611;51.638;5.784;2022-08-02T04:37:53;5.80;;;3.50;;
48847;SDS011;36611;51.638;5.784;2022-08-02T04:40:36;4.68;;;3.58;;
48847;SDS011;36611;51.638;5.784;2022-08-02T04:43:04;8.05;;;3.80;;
48847;SDS011;36611;51.638;5.784;2022-08-02T04:45:30;6.60;;;3.60;;
48847;SDS011;36611;51.638;5.784;2022-08-02T04:47:57;6.43;;;3.45;;
48847;SDS011;36611;51.638;5.784;2022-08-02T04:50:30;5.28;;;3.70;;
48847;SDS011;36611;51.638;5.784;2022-08-02T04:52:59;6.90;;;3.58;;
48847;SDS011;36611;51.638;5.784;2022-08-02T04:55:25;5.43;;;3.53;;
48847;SDS011;36611;51.638;5.784;2022-08-02T04:57:54;7.05;;;3.58;;
48847;SDS011;36611;51.638;5.784;2022-08-02T05:00:23;5.28;;;3.58;;
48847;SDS011;36611;51.638;5.784;2022-08-02T05:02:58;6.38;;;3.40;;
48847;SDS011;36611;51.638;5.784;2022-08-02T05:05:25;6.00;;;4.00;;
48847;SDS011;36611;51.638;5.784;2022-08-02T05:07:52;8.00;;;3.97;;
48847;SDS011;36611;51.638;5.784;2022-08-02T05:10:19;5.80;;;3.88;;
48847;SDS011;36611;51.638;5.784;2022-08-02T05:15:17;5.85;;;3.97;;
48847;SDS011;36611;51.638;5.784;2022-08-02T05:17:44;7.47;;;4.57;;
48847;SDS011;36611;51.638;5.784;2022-08-02T05:20:14;5.28;;;4.07;;
48847;SDS011;36611;51.638;5.784;2022-08-02T05:22:43;6.55;;;3.97;;
48847;SDS011;36611;51.638;5.784;2022-08-02T05:25:17;7.13;;;4.50;;
48847;SDS011;36611;51.638;5.784;2022-08-02T05:27:43;6.35;;;5.13;;
48847;SDS011;36611;51.638;5.784;2022-08-02T05:30:10;7.63;;;4.60;;
48847;SDS011;36611;51.638;5.784;2022-08-02T05:32:44;10.65;;;5.30;;
48847;SDS011;36611;51.638;5.784;2022-08-02T05:35:20;9.98;;;4.97;;
48847;SDS011;36611;51.638;5.784;2022-08-02T05:37:48;7.85;;;5.53;;
48847;SDS011;36611;51.638;5.784;2022-08-02T05:40:16;11.13;;;5.10;;
48847;SDS011;36611;51.638;5.784;2022-08-02T05:42:55;8.18;;;5.38;;
48847;SDS011;36611;51.638;5.784;2022-08-02T05:45:22;7.63;;;5.38;;
48847;SDS011;36611;51.638;5.784;2022-08-02T05:47:49;10.25;;;5.20;;
48847;SDS011;36611;51.638;5.784;2022-08-02T05:50:16;8.27;;;5.65;;
48847;SDS011;36611;51.638;5.784;2022-08-02T05:52:44;8.88;;;6.50;;
48847;SDS011;36611;51.638;5.784;2022-08-02T05:55:56;11.43;;;6.30;;
48847;SDS011;36611;51.638;5.784;2022-08-02T05:58:55;9.48;;;5.93;;
48847;SDS011;36611;51.638;5.784;2022-08-02T06:01:35;12.57;;;6.97;;
48847;SDS011;36611;51.638;5.784;2022-08-02T06:04:06;13.55;;;7.15;;
48847;SDS011;36611;51.638;5.784;2022-08-02T06:06:34;10.40;;;6.65;;
48847;SDS011;36611;51.638;5.784;2022-08-02T06:09:09;11.57;;;7.13;;
48847;SDS011;36611;51.638;5.784;2022-08-02T06:11:42;10.73;;;8.15;;
48847;SDS011;36611;51.638;5.784;2022-08-02T06:14:31;12.32;;;10.20;;
48847;SDS011;36611;51.638;5.784;2022-08-02T06:17:02;14.40;;;9.52;;
48847;SDS011;36611;51.638;5.784;2022-08-02T06:19:30;11.10;;;8.38;;
48847;SDS011;36611;51.638;5.784;2022-08-02T06:22:17;12.15;;;7.75;;
48847;SDS011;36611;51.638;5.784;2022-08-02T06:25:05;10.48;;;8.38;;
48847;SDS011;36611;51.638;5.784;2022-08-02T06:27:52;12.10;;;8.20;;
48847;SDS011;36611;51.638;5.784;2022-08-02T06:30:19;11.48;;;8.75;;
48847;SDS011;36611;51.638;5.784;2022-08-02T06:32:52;15.88;;;10.90;;
48847;SDS011;36611;51.638;5.784;2022-08-02T06:35:20;15.05;;;12.90;;
48847;SDS011;36611;51.638;5.784;2022-08-02T06:37:49;14.15;;;11.15;;
48847;SDS011;36611;51.638;5.784;2022-08-02T06:43:16;10.88;;;8.50;;
48847;SDS011;36611;51.638;5.784;2022-08-02T06:45:45;12.93;;;7.63;;
48847;SDS011;36611;51.638;5.784;2022-08-02T06:48:12;11.90;;;7.68;;
48847;SDS011;36611;51.638;5.784;2022-08-02T06:50:39;9.95;;;7.10;;
48847;SDS011;36611;51.638;5.784;2022-08-02T06:53:11;9.35;;;6.90;;
48847;SDS011;36611;51.638;5.784;2022-08-02T06:55:38;10.75;;;7.60;;
48847;SDS011;36611;51.638;5.784;2022-08-02T06:58:09;8.43;;;6.95;;
48847;SDS011;36611;51.638;5.784;2022-08-02T07:00:36;12.23;;;7.65;;
48847;SDS011;36611;51.638;5.784;2022-08-02T07:03:08;13.10;;;8.20;;
48847;SDS011;36611;51.638;5.784;2022-08-02T07:05:34;10.35;;;7.53;;
48847;SDS011;36611;51.638;5.784;2022-08-02T07:08:01;12.13;;;8.07;;
48847;SDS011;36611;51.638;5.784;2022-08-02T07:10:28;9.15;;;8.00;;
48847;SDS011;36611;51.638;5.784;2022-08-02T07:12:57;13.80;;;8.52;;
48847;SDS011;36611;51.638;5.784;2022-08-02T07:15:25;12.07;;;7.97;;
48847;SDS011;36611;51.638;5.784;2022-08-02T07:17:52;10.38;;;7.72;;
48847;SDS011;36611;51.638;5.784;2022-08-02T07:20:20;11.23;;;8.20;;
48847;SDS011;36611;51.638;5.784;2022-08-02T07:22:50;13.82;;;8.48;;
48847;SDS011;36611;51.638;5.784;2022-08-02T07:25:16;13.55;;;8.52;;
48847;SDS011;36611;51.638;5.784;2022-08-02T07:27:43;11.90;;;7.88;;
48847;SDS011;36611;51.638;5.784;2022-08-02T07:30:10;10.18;;;7.32;;
48847;SDS011;36611;51.638;5.784;2022-08-02T07:32:37;9.60;;;7.68;;
48847;SDS011;36611;51.638;5.784;2022-08-02T07:35:05;9.65;;;8.25;;
48847;SDS011;36611;51.638;5.784;2022-08-02T07:37:33;9.40;;;7.72;;
48847;SDS011;36611;51.638;5.784;2022-08-02T07:40:21;9.23;;;7.95;;
48847;SDS011;36611;51.638;5.784;2022-08-02T07:42:51;10.80;;;8.23;;
48847;SDS011;36611;51.638;5.784;2022-08-02T07:45:25;9.95;;;7.65;;
48847;SDS011;36611;51.638;5.784;2022-08-02T07:47:52;8.48;;;7.00;;
48847;SDS011;36611;51.638;5.784;2022-08-02T07:50:20;8.90;;;7.68;;
48847;SDS011;36611;51.638;5.784;2022-08-02T07:55:23;9.50;;;6.10;;
48847;SDS011;36611;51.638;5.784;2022-08-02T07:58:05;7.82;;;6.63;;
48847;SDS011;36611;51.638;5.784;2022-08-02T08:00:36;8.43;;;6.55;;
48847;SDS011;36611;51.638;5.784;2022-08-02T08:03:07;10.18;;;6.80;;
48847;SDS011;36611;51.638;5.784;2022-08-02T08:05:34;7.85;;;5.93;;
48847;SDS011;36611;51.638;5.784;2022-08-02T08:08:01;11.55;;;6.43;;
48847;SDS011;36611;51.638;5.784;2022-08-02T08:10:27;8.70;;;5.50;;
48847;SDS011;36611;51.638;5.784;2022-08-02T08:12:58;9.43;;;5.97;;
48847;SDS011;36611;51.638;5.784;2022-08-02T08:15:25;6.70;;;5.15;;
48847;SDS011;36611;51.638;5.784;2022-08-02T08:17:52;6.85;;;5.40;;
48847;SDS011;36611;51.638;5.784;2022-08-02T08:20:18;5.72;;;4.32;;
48847;SDS011;36611;51.638;5.784;2022-08-02T08:25:18;12.63;;;5.03;;
48847;SDS011;36611;51.638;5.784;2022-08-02T08:27:49;7.70;;;4.80;;
48847;SDS011;36611;51.638;5.784;2022-08-02T08:30:18;5.72;;;4.63;;
48847;SDS011;36611;51.638;5.784;2022-08-02T08:35:20;4.82;;;4.32;;
48847;SDS011;36611;51.638;5.784;2022-08-02T08:37:47;5.50;;;3.70;;
48847;SDS011;36611;51.638;5.784;2022-08-02T08:40:14;6.72;;;4.28;;
48847;SDS011;36611;51.638;5.784;2022-08-02T08:45:17;4.00;;;3.28;;
48847;SDS011;36611;51.638;5.784;2022-08-02T08:47:45;4.43;;;3.42;;
48847;SDS011;36611;51.638;5.784;2022-08-02T08:50:29;5.28;;;2.80;;
48847;SDS011;36611;51.638;5.784;2022-08-02T08:53:07;8.07;;;3.45;;
48847;SDS011;36611;51.638;5.784;2022-08-02T08:55:39;4.32;;;2.80;;
48847;SDS011;36611;51.638;5.784;2022-08-02T08:58:05;3.60;;;2.60;;
48847;SDS011;36611;51.638;5.784;2022-08-02T09:00:33;5.43;;;2.70;;
48847;SDS011;36611;51.638;5.784;2022-08-02T09:03:05;3.35;;;2.70;;
48847;SDS011;36611;51.638;5.784;2022-08-02T09:05:34;4.22;;;2.85;;
48847;SDS011;36611;51.638;5.784;2022-08-02T09:08:02;3.28;;;2.25;;
48847;SDS011;36611;51.638;5.784;2022-08-02T09:16:01;5.93;;;2.67;;
48847;SDS011;36611;51.638;5.784;2022-08-02T09:18:40;5.03;;;2.42;;
48847;SDS011;36611;51.638;5.784;2022-08-02T09:21:12;4.22;;;2.63;;
48847;SDS011;36611;51.638;5.784;2022-08-02T09:23:42;3.20;;;2.90;;
48847;SDS011;36611;51.638;5.784;2022-08-02T09:26:12;3.28;;;2.55;;
48847;SDS011;36611;51.638;5.784;2022-08-02T09:28:41;3.17;;;2.50;;
48847;SDS011;36611;51.638;5.784;2022-08-02T09:31:16;4.50;;;2.22;;
48847;SDS011;36611;51.638;5.784;2022-08-02T09:33:51;8.38;;;3.75;;
48847;SDS011;36611;51.638;5.784;2022-08-02T09:36:20;10.20;;;3.03;;
48847;SDS011;36611;51.638;5.784;2022-08-02T09:39:08;5.32;;;2.70;;
48847;SDS011;36611;51.638;5.784;2022-08-02T09:41:38;3.60;;;2.70;;
48847;SDS011;36611;51.638;5.784;2022-08-02T09:44:08;3.00;;;2.08;;
48847;SDS011;36611;51.638;5.784;2022-08-02T09:46:42;8.13;;;2.25;;
48847;SDS011;36611;51.638;5.784;2022-08-02T09:49:11;5.07;;;2.17;;
48847;SDS011;36611;51.638;5.784;2022-08-02T09:51:47;10.63;;;2.88;;
48847;SDS011;36611;51.638;5.784;2022-08-02T09:54:18;4.28;;;2.13;;
48847;SDS011;36611;51.638;5.784;2022-08-02T09:56:47;2.42;;;1.70;;
48847;SDS011;36611;51.638;5.784;2022-08-02T09:59:18;3.72;;;2.15;;
48847;SDS011;36611;51.638;5.784;2022-08-02T10:01:47;3.00;;;2.58;;
48847;SDS011;36611;51.638;5.784;2022-08-02T10:04:25;3.55;;;2.60;;
48847;SDS011;36611;51.638;5.784;2022-08-02T10:07:17;5.00;;;2.35;;
48847;SDS011;36611;51.638;5.784;2022-08-02T10:09:47;5.28;;;2.25;;
48847;SDS011;36611;51.638;5.784;2022-08-02T10:12:14;3.15;;;2.00;;
48847;SDS011;36611;51.638;5.784;2022-08-02T10:14:42;5.95;;;2.22;;
48847;SDS011;36611;51.638;5.784;2022-08-02T10:17:10;4.32;;;2.10;;
48847;SDS011;36611;51.638;5.784;2022-08-02T10:19:37;2.53;;;1.83;;
48847;SDS011;36611;51.638;5.784;2022-08-02T10:22:23;2.33;;;1.35;;
48847;SDS011;36611;51.638;5.784;2022-08-02T10:24:53;1.92;;;1.63;;
48847;SDS011;36611;51.638;5.784;2022-08-02T10:27:20;2.63;;;1.70;;
48847;SDS011;36611;51.638;5.784;2022-08-02T10:29:47;3.65;;;1.65;;
48847;SDS011;36611;51.638;5.784;2022-08-02T10:32:32;2.28;;;1.67;;
48847;SDS011;36611;51.638;5.784;2022-08-02T10:35:07;2.90;;;1.50;;
48847;SDS011;36611;51.638;5.784;2022-08-02T10:37:51;4.50;;;1.38;;
48847;SDS011;36611;51.638;5.784;2022-08-02T10:40:20;3.08;;;1.55;;
48847;SDS011;36611;51.638;5.784;2022-08-02T10:42:57;2.58;;;1.30;;
48847;SDS011;36611;51.638;5.784;2022-08-02T10:45:27;4.10;;;1.23;;
48847;SDS011;36611;51.638;5.784;2022-08-02T10:48:10;4.15;;;1.30;;
48847;SDS011;36611;51.638;5.784;2022-08-02T10:53:33;1.50;;;1.00;;
48847;SDS011;36611;51.638;5.784;2022-08-02T10:56:00;2.78;;;1.20;;
48847;SDS011;36611;51.638;5.784;2022-08-02T10:58:34;1.50;;;1.20;;
48847;SDS011;36611;51.638;5.784;2022-08-02T11:01:05;2.28;;;1.10;;
48847;SDS011;36611;51.638;5.784;2022-08-02T11:04:05;2.45;;;0.95;;
48847;SDS011;36611;51.638;5.784;2022-08-02T11:06:45;1.65;;;1.13;;
48847;SDS011;36611;51.638;5.784;2022-08-02T11:09:36;1.73;;;1.10;;
48847;SDS011;36611;51.638;5.784;2022-08-02T11:12:07;2.85;;;1.10;;
48847;SDS011;36611;51.638;5.784;2022-08-02T11:14:40;2.45;;;1.02;;
48847;SDS011;36611;51.638;5.784;2022-08-02T11:17:09;1.88;;;1.00;;
48847;SDS011;36611;51.638;5.784;2022-08-02T11:20:20;1.52;;;1.00;;
48847;SDS011;36611;51.638;5.784;2022-08-02T11:22:33;2.00;;;1.00;;
48847;SDS011;36611;51.638;5.784;2022-08-02T11:27:48;1.67;;;0.70;;
48847;SDS011;36611;51.638;5.784;2022-08-02T11:30:19;1.88;;;0.85;;
48847;SDS011;36611;51.638;5.784;2022-08-02T11:32:59;1.88;;;1.00;;
48847;SDS011;36611;51.638;5.784;2022-08-02T11:35:33;1.60;;;1.02;;
48847;SDS011;36611;51.638;5.784;2022-08-02T11:38:14;3.25;;;1.05;;
48847;SDS011;36611;51.638;5.784;2022-08-02T11:40:45;1.98;;;1.00;;
48847;SDS011;36611;51.638;5.784;2022-08-02T11:43:22;2.45;;;1.00;;
48847;SDS011;36611;51.638;5.784;2022-08-02T11:45:52;2.20;;;1.10;;
48847;SDS011;36611;51.638;5.784;2022-08-02T11:48:33;2.85;;;0.90;;
48847;SDS011;36611;51.638;5.784;2022-08-02T11:56:16;2.70;;;1.15;;
48847;SDS011;36611;51.638;5.784;2022-08-02T11:59:00;1.83;;;1.02;;
48847;SDS011;36611;51.638;5.784;2022-08-02T12:01:32;1.30;;;0.88;;
48847;SDS011;36611;51.638;5.784;2022-08-02T12:04:14;2.42;;;1.40;;
48847;SDS011;36611;51.638;5.784;2022-08-02T12:06:53;2.65;;;0.80;;
48847;SDS011;36611;51.638;5.784;2022-08-02T12:09:22;2.08;;;0.88;;
48847;SDS011;36611;51.638;5.784;2022-08-02T12:11:50;1.38;;;0.80;;
48847;SDS011;36611;51.638;5.784;2022-08-02T12:14:22;1.20;;;0.88;;
48847;SDS011;36611;51.638;5.784;2022-08-02T12:16:50;4.53;;;0.93;;
48847;SDS011;36611;51.638;5.784;2022-08-02T12:19:36;1.48;;;0.95;;
48847;SDS011;36611;51.638;5.784;2022-08-02T12:24:49;3.60;;;0.80;;
48847;SDS011;36611;51.638;5.784;2022-08-02T12:27:30;2.90;;;1.13;;
48847;SDS011;36611;51.638;5.784;2022-08-02T12:30:09;1.77;;;1.00;;
48847;SDS011;36611;51.638;5.784;2022-08-02T12:32:37;2.03;;;1.05;;
48847;SDS011;36611;51.638;5.784;2022-08-02T12:35:16;2.90;;;0.93;;
48847;SDS011;36611;51.638;5.784;2022-08-02T12:37:52;3.25;;;1.00;;
48847;SDS011;36611;51.638;5.784;2022-08-02T12:40:23;5.45;;;1.05;;
48847;SDS011;36611;51.638;5.784;2022-08-02T12:42:56;2.47;;;0.90;;
48847;SDS011;36611;51.638;5.784;2022-08-02T12:45:31;1.60;;;0.77;;
48847;SDS011;36611;51.638;5.784;2022-08-02T12:48:14;1.65;;;0.80;;
48847;SDS011;36611;51.638;5.784;2022-08-02T12:50:42;1.73;;;0.85;;
48847;SDS011;36611;51.638;5.784;2022-08-02T12:53:14;2.80;;;0.80;;
48847;SDS011;36611;51.638;5.784;2022-08-02T12:55:50;2.10;;;0.80;;
48847;SDS011;36611;51.638;5.784;2022-08-02T12:58:27;2.67;;;0.85;;
48847;SDS011;36611;51.638;5.784;2022-08-02T13:00:56;2.20;;;1.00;;
48847;SDS011;36611;51.638;5.784;2022-08-02T13:03:28;2.03;;;0.88;;
48847;SDS011;36611;51.638;5.784;2022-08-02T13:06:15;2.17;;;1.45;;
48847;SDS011;36611;51.638;5.784;2022-08-02T13:09:10;3.53;;;0.90;;
48847;SDS011;36611;51.638;5.784;2022-08-02T13:11:38;3.70;;;0.68;;
48847;SDS011;36611;51.638;5.784;2022-08-02T13:14:13;2.97;;;1.15;;
48847;SDS011;36611;51.638;5.784;2022-08-02T13:16:41;2.30;;;1.00;;
48847;SDS011;36611;51.638;5.784;2022-08-02T13:19:09;5.60;;;1.40;;
48847;SDS011;36611;51.638;5.784;2022-08-02T13:21:36;3.35;;;0.90;;
48847;SDS011;36611;51.638;5.784;2022-08-02T13:24:23;2.58;;;1.10;;
48847;SDS011;36611;51.638;5.784;2022-08-02T13:27:07;2.50;;;0.90;;
48847;SDS011;36611;51.638;5.784;2022-08-02T13:29:35;4.30;;;1.00;;
48847;SDS011;36611;51.638;5.784;2022-08-02T13:32:03;2.42;;;1.15;;
48847;SDS011;36611;51.638;5.784;2022-08-02T13:34:30;4.18;;;1.20;;
48847;SDS011;36611;51.638;5.784;2022-08-02T13:36:57;2.40;;;1.00;;
48847;SDS011;36611;51.638;5.784;2022-08-02T13:39:24;3.85;;;1.10;;
48847;SDS011;36611;51.638;5.784;2022-08-02T13:41:50;1.60;;;0.90;;
48847;SDS011;36611;51.638;5.784;2022-08-02T13:44:19;2.97;;;0.80;;
48847;SDS011;36611;51.638;5.784;2022-08-02T13:46:46;2.47;;;1.10;;
48847;SDS011;36611;51.638;5.784;2022-08-02T13:49:12;2.05;;;1.00;;
48847;SDS011;36611;51.638;5.784;2022-08-02T13:51:45;2.55;;;1.00;;
48847;SDS011;36611;51.638;5.784;2022-08-02T13:54:15;2.85;;;1.13;;
48847;SDS011;36611;51.638;5.784;2022-08-02T13:56:42;4.22;;;1.17;;
48847;SDS011;36611;51.638;5.784;2022-08-02T13:59:08;1.60;;;1.15;;
48847;SDS011;36611;51.638;5.784;2022-08-02T14:01:55;2.38;;;0.90;;
48847;SDS011;36611;51.638;5.784;2022-08-02T14:04:29;1.38;;;0.70;;
48847;SDS011;36611;51.638;5.784;2022-08-02T14:06:56;3.00;;;0.98;;
48847;SDS011;36611;51.638;5.784;2022-08-02T14:09:24;3.33;;;1.30;;
48847;SDS011;36611;51.638;5.784;2022-08-02T14:11:51;1.20;;;0.90;;
48847;SDS011;36611;51.638;5.784;2022-08-02T14:14:19;3.22;;;0.90;;
48847;SDS011;36611;51.638;5.784;2022-08-02T14:16:46;4.60;;;1.42;;
48847;SDS011;36611;51.638;5.784;2022-08-02T14:19:13;2.17;;;0.90;;
48847;SDS011;36611;51.638;5.784;2022-08-02T14:21:45;1.95;;;0.98;;
48847;SDS011;36611;51.638;5.784;2022-08-02T14:24:18;2.78;;;0.80;;
48847;SDS011;36611;51.638;5.784;2022-08-02T14:26:46;0.77;;;0.70;;
48847;SDS011;36611;51.638;5.784;2022-08-02T14:29:14;1.20;;;0.70;;
48847;SDS011;36611;51.638;5.784;2022-08-02T14:31:41;2.20;;;0.73;;
48847;SDS011;36611;51.638;5.784;2022-08-02T14:34:14;1.35;;;0.80;;
48847;SDS011;36611;51.638;5.784;2022-08-02T14:36:41;3.50;;;0.80;;
48847;SDS011;36611;51.638;5.784;2022-08-02T14:39:07;2.28;;;0.75;;
48847;SDS011;36611;51.638;5.784;2022-08-02T14:41:35;3.45;;;1.20;;
48847;SDS011;36611;51.638;5.784;2022-08-02T14:44:23;1.55;;;1.10;;
48847;SDS011;36611;51.638;5.784;2022-08-02T14:46:50;1.33;;;0.77;;
48847;SDS011;36611;51.638;5.784;2022-08-02T14:49:18;2.28;;;0.77;;
48847;SDS011;36611;51.638;5.784;2022-08-02T14:51:51;2.03;;;0.60;;
48847;SDS011;36611;51.638;5.784;2022-08-02T14:54:19;2.35;;;0.90;;
48847;SDS011;36611;51.638;5.784;2022-08-02T14:56:54;1.55;;;0.90;;
48847;SDS011;36611;51.638;5.784;2022-08-02T14:59:23;1.10;;;0.88;;
48847;SDS011;36611;51.638;5.784;2022-08-02T15:01:50;2.88;;;0.65;;
48847;SDS011;36611;51.638;5.784;2022-08-02T15:04:21;3.20;;;0.70;;
48847;SDS011;36611;51.638;5.784;2022-08-02T15:06:48;4.13;;;0.70;;
48847;SDS011;36611;51.638;5.784;2022-08-02T15:09:14;2.45;;;0.70;;
48847;SDS011;36611;51.638;5.784;2022-08-02T15:11:41;1.08;;;0.63;;
48847;SDS011;36611;51.638;5.784;2022-08-02T15:14:16;3.20;;;0.98;;
48847;SDS011;36611;51.638;5.784;2022-08-02T15:16:51;1.42;;;0.60;;
48847;SDS011;36611;51.638;5.784;2022-08-02T15:19:23;2.45;;;0.57;;
48847;SDS011;36611;51.638;5.784;2022-08-02T15:22:10;2.90;;;0.65;;
48847;SDS011;36611;51.638;5.784;2022-08-02T15:24:43;3.53;;;0.70;;
48847;SDS011;36611;51.638;5.784;2022-08-02T15:27:10;1.30;;;0.57;;
48847;SDS011;36611;51.638;5.784;2022-08-02T15:29:41;3.53;;;0.93;;
48847;SDS011;36611;51.638;5.784;2022-08-02T15:32:08;2.30;;;0.80;;
48847;SDS011;36611;51.638;5.784;2022-08-02T15:34:36;2.85;;;0.85;;
48847;SDS011;36611;51.638;5.784;2022-08-02T15:37:03;1.63;;;0.85;;
48847;SDS011;36611;51.638;5.784;2022-08-02T15:39:29;2.22;;;0.90;;
48847;SDS011;36611;51.638;5.784;2022-08-02T15:41:56;2.22;;;1.10;;
48847;SDS011;36611;51.638;5.784;2022-08-02T15:44:24;1.38;;;0.60;;
48847;SDS011;36611;51.638;5.784;2022-08-02T15:46:51;1.33;;;0.75;;
48847;SDS011;36611;51.638;5.784;2022-08-02T15:49:19;2.22;;;0.80;;
48847;SDS011;36611;51.638;5.784;2022-08-02T15:51:49;6.00;;;1.08;;
48847;SDS011;36611;51.638;5.784;2022-08-02T15:54:18;2.45;;;0.95;;
48847;SDS011;36611;51.638;5.784;2022-08-02T15:56:45;3.00;;;0.93;;